• Join FlightAware (Why Join?)
  • Login
  • US Flag 
09:17AM EDT


 

Airport Tracker/Info


-or-


 

Live Flight TrackerFlight Track Log ✈ CPT7773 ✈ 21-Aug-2013 ✈ KCOD - KCPR

Flight Track Log - Related Links

Times and Time Zones

All times are in EDT time to prevent confusion due to time zone crossing. See the CPT7773 flight status page for this flight to view local times or setup timezone preferences in your user account.

Time Position Orientation Groundspeed Altitude Reporting Facility
EDT Latitude Longitude Course Direction KTS MPH feet Rate Location/Type
08:00PM 44.3770 -108.7043 120° Southeast  Level FlightAware Approximate
08:01PM 44.3549 -108.6510 120° Southeast  Level FlightAware Approximate
08:02PM 44.3327 -108.5977 120° Southeast  Level FlightAware Approximate
08:03PM 44.3105 -108.5445 120° Southeast  Level FlightAware Approximate
08:04PM 44.2882 -108.4913 120° Southeast  Level FlightAware Approximate
08:05PM 44.2660 -108.4381 120° Southeast  Level FlightAware Approximate
08:06PM 44.2415 -108.3873 133° Southeast  Level FlightAware Approximate
08:07PM 44.2116 -108.3422 133° Southeast  Level FlightAware Approximate
08:08PM 44.1815 -108.2971 133° Southeast  Level FlightAware Approximate
08:09PM 44.1515 -108.2521 133° Southeast  Level FlightAware Approximate
08:10PM 44.1215 -108.2072 133° Southeast  Level FlightAware Approximate
08:11PM 44.0915 -108.1621 133° Southeast  Level FlightAware Approximate
08:12PM 44.0616 -108.1171 133° Southeast  Level FlightAware Approximate
08:13PM 44.0316 -108.0721 133° Southeast  Level FlightAware Approximate
08:14PM 44.0016 -108.0272 133° Southeast  Level FlightAware Approximate
08:15PM 43.9716 -107.9823 133° Southeast  Level FlightAware Approximate
08:16PM 43.9438 -107.9352 120° Southeast  Level FlightAware Approximate
08:17PM 43.9218 -107.8821 120° Southeast  Level FlightAware Approximate
08:18PM 43.8997 -107.8292 120° Southeast  Level FlightAware Approximate
08:19PM 43.8776 -107.7762 120° Southeast  Level FlightAware Approximate
08:20PM 43.8530 -107.7257 128° Southeast  Level FlightAware Approximate
08:21PM 43.8259 -107.6775 128° Southeast  Level FlightAware Approximate
08:22PM 43.7988 -107.6293 128° Southeast  Level FlightAware Approximate
08:22PM 43.9014 -107.8272 128° Southeast 164 189 12,000  Level Denver Center
08:23PM 43.7716 -107.5812 128° Southeast  Level FlightAware Approximate
08:24PM 43.8471 -107.7509 135° Southeast  Level Estimated
08:24PM 43.7444 -107.5331 128° Southeast  Level FlightAware Approximate
08:25PM 43.7177 -107.4859 128° Southeast  Level FlightAware Approximate
08:26PM 43.6910 -107.4388 128° Southeast  Level FlightAware Approximate
08:27PM 43.6642 -107.3916 128° Southeast  Level FlightAware Approximate
08:31PM 43.6333 -107.4528 135° Southeast  Level Estimated
08:32PM 43.6027 -107.4104 135° Southeast  Level Estimated
08:33PM 43.5721 -107.3680 135° Southeast  Level Estimated
08:33PM 43.5544 -107.1611 135° Southeast 158 182 12,000  Level Salt Lake Center
08:34PM 43.5415 -107.3257 135° Southeast  Level Estimated
08:34PM 43.5300 -107.1136 125° Southeast 158 182 12,000  Level Salt Lake Center
08:35PM 43.5108 -107.2834 135° Southeast  Level Estimated
08:35PM 43.5006 -107.0578 126° Southeast 160 184 12,000  Level Salt Lake Center
08:36PM 43.4802 -107.2412 135° Southeast  Level Estimated
08:36PM 43.4756 -107.0094 125° Southeast 161 185 12,000  Level Salt Lake Center
08:37PM 43.4495 -107.1990 135° Southeast  Level Estimated
08:37PM 43.4469 -106.9544 126° Southeast 160 184 12,000  Level Salt Lake Center
08:38PM 43.4188 -107.1568 135° Southeast  Level Estimated
08:38PM 43.4244 -106.9081 124° Southeast 156 180 12,000  Level Salt Lake Center
08:39PM 43.3967 -106.8553 126° Southeast 153 176 12,000  Level Salt Lake Center
08:40PM 43.3725 -106.8106 127° Southeast 153 176 12,000 -300 Level Salt Lake Center
08:41PM 43.3425 -106.7614 130° Southeast 151 174 11,400 -600 Descending Salt Lake Center
08:42PM 43.3044 -106.7397 157° South 147 169 10,800 -600 Descending Salt Lake Center
08:43PM 43.2656 -106.7144 155° Southeast 152 175 10,200 -540 Descending Salt Lake Center
08:44PM 43.2239 -106.6836 152° Southeast 154 177 9,800 -600 Descending Salt Lake Center
08:45PM 43.1869 -106.6575 153° Southeast 155 178 9,000 -420 Descending Salt Lake Center
08:46PM 43.1431 -106.6253 152° Southeast 158 182 9,000 -300 Level Salt Lake Center
08:47PM 43.1039 -106.5989 154° Southeast 160 184 8,500 -660 Descending Salt Lake Center
08:48PM 43.0561 -106.5686 155° Southeast 165 190 7,700 -660 Descending Salt Lake Center
08:49PM 43.0161 -106.5408 153° Southeast 167 192 7,200 -540 Descending Salt Lake Center